createdAt,value
2017-08-03T00:01:04.405Z,979.22
2017-08-03T00:02:14.672Z,979.27
2017-08-03T00:03:24.623Z,979.27
2017-08-03T00:04:34.892Z,979.29
2017-08-03T00:05:45.159Z,979.22
2017-08-03T00:06:55.116Z,979.23
2017-08-03T00:08:05.385Z,979.23
2017-08-03T00:09:15.033Z,979.2
2017-08-03T00:10:25.311Z,979.19
2017-08-03T00:11:35.268Z,979.23
2017-08-03T00:12:45.231Z,979.24
2017-08-03T00:13:55.505Z,979.18
2017-08-03T00:15:05.459Z,979.2
2017-08-03T00:16:15.732Z,979.2
2017-08-03T00:17:25.364Z,979.22
2017-08-03T00:18:35.626Z,979.24
2017-08-03T00:19:45.896Z,979.23
2017-08-03T00:20:56.160Z,979.28
2017-08-03T00:22:06.428Z,979.3
2017-08-03T00:23:16.718Z,979.26
2017-08-03T00:24:26.993Z,979.28
2017-08-03T00:25:37.280Z,979.25
2017-08-03T00:26:47.548Z,979.26
2017-08-03T00:27:57.816Z,979.25
2017-08-03T00:29:08.086Z,979.25
2017-08-03T00:30:18.354Z,979.21
2017-08-03T00:31:28.648Z,979.19
2017-08-03T00:32:38.598Z,979.16
2017-08-03T00:33:48.876Z,979.16
2017-08-03T00:34:59.147Z,979.14
2017-08-03T00:36:09.432Z,979.11
2017-08-03T00:37:19.701Z,979.13
2017-08-03T00:38:29.966Z,979.14
2017-08-03T00:39:39.917Z,979.16
2017-08-03T00:40:49.873Z,979.17
2017-08-03T00:41:59.515Z,979.17
2017-08-03T00:43:09.467Z,979.19
2017-08-03T00:44:19.733Z,979.18
2017-08-03T00:45:29.999Z,979.17
2017-08-03T00:46:40.263Z,979.24
2017-08-03T00:47:50.212Z,979.24
2017-08-03T00:48:59.848Z,979.24
2017-08-03T00:50:10.117Z,979.2
2017-08-03T00:51:20.066Z,979.23
2017-08-03T00:52:30.332Z,979.23
2017-08-03T00:53:40.631Z,979.23
2017-08-03T00:54:50.909Z,979.25
2017-08-03T00:56:01.177Z,979.27
2017-08-03T00:57:11.444Z,979.26
2017-08-03T00:58:21.714Z,979.3
2017-08-03T00:59:31.977Z,979.32
2017-08-03T01:00:42.250Z,979.38
2017-08-03T01:01:52.522Z,979.38
2017-08-03T01:03:02.788Z,979.41
2017-08-03T01:04:13.057Z,979.38
2017-08-03T01:05:23.323Z,979.42
2017-08-03T01:06:33.285Z,979.4
2017-08-03T01:07:43.552Z,979.37
2017-08-03T01:08:53.836Z,979.35
2017-08-03T01:10:03.787Z,979.33
2017-08-03T01:11:14.057Z,979.35
2017-08-03T01:12:24.007Z,979.36
2017-08-03T01:13:33.960Z,979.38
2017-08-03T01:14:44.226Z,979.36
2017-08-03T01:15:54.175Z,979.35
2017-08-03T01:17:04.441Z,979.3
2017-08-03T01:18:14.406Z,979.28
2017-08-03T01:19:24.673Z,979.27
2017-08-03T01:20:34.630Z,979.24
2017-08-03T01:21:44.582Z,979.25
2017-08-03T01:22:54.853Z,979.21
2017-08-03T01:24:05.119Z,979.28
2017-08-03T01:25:15.394Z,979.24
2017-08-03T01:26:25.662Z,979.29
2017-08-03T01:27:35.925Z,979.28
2017-08-03T01:28:46.190Z,979.27
2017-08-03T01:29:56.463Z,979.28
2017-08-03T01:31:06.731Z,979.33
2017-08-03T01:32:16.704Z,979.33
2017-08-03T01:33:26.967Z,979.26
2017-08-03T01:34:36.924Z,979.28
2017-08-03T01:35:47.190Z,979.32
2017-08-03T01:36:57.157Z,979.34
2017-08-03T01:38:07.429Z,979.37
2017-08-03T01:39:17.068Z,979.34
2017-08-03T01:40:27.022Z,979.39
2017-08-03T01:41:37.293Z,979.44
2017-08-03T01:42:47.560Z,979.43
2017-08-03T01:43:57.518Z,979.44
2017-08-03T01:45:07.784Z,979.46
2017-08-03T01:46:18.064Z,979.4
2017-08-03T01:47:28.341Z,979.41
2017-08-03T01:48:38.615Z,979.37
2017-08-03T01:49:48.884Z,979.36
2017-08-03T01:50:59.154Z,979.31
2017-08-03T01:52:09.426Z,979.34
2017-08-03T01:53:19.380Z,979.32
2017-08-03T01:54:29.649Z,979.35
2017-08-03T01:55:39.913Z,979.36
2017-08-03T01:56:50.174Z,979.37
2017-08-03T01:58:00.444Z,979.34
2017-08-03T01:59:10.416Z,979.37
2017-08-03T02:00:20.678Z,979.39
2017-08-03T02:01:30.975Z,979.35
2017-08-03T02:02:41.239Z,979.39
2017-08-03T02:03:51.509Z,979.36
2017-08-03T02:05:01.779Z,979.37
2017-08-03T02:06:11.732Z,979.33
2017-08-03T02:07:22.005Z,979.31
2017-08-03T02:08:32.061Z,979.33
2017-08-03T02:09:42.329Z,979.35
2017-08-03T02:10:52.284Z,979.37
2017-08-03T02:12:02.551Z,979.36
2017-08-03T02:13:12.832Z,979.42
2017-08-03T02:14:23.097Z,979.37
2017-08-03T02:15:33.053Z,979.41
2017-08-03T02:16:43.316Z,979.44
2017-08-03T02:17:53.595Z,979.46
2017-08-03T02:19:03.866Z,979.45
2017-08-03T02:20:14.130Z,979.44
2017-08-03T02:21:24.395Z,979.48
2017-08-03T02:22:34.344Z,979.46
2017-08-03T02:23:44.621Z,979.5
2017-08-03T02:24:54.583Z,979.47
2017-08-03T02:26:04.850Z,979.49
2017-08-03T02:27:15.114Z,979.5
2017-08-03T02:28:25.068Z,979.46
2017-08-03T02:29:35.332Z,979.49
2017-08-03T02:30:45.596Z,979.44
2017-08-03T02:31:55.875Z,979.43
2017-08-03T02:33:05.520Z,979.37
2017-08-03T02:34:15.788Z,979.33
2017-08-03T02:35:26.053Z,979.37
2017-08-03T02:36:36.011Z,979.33
2017-08-03T02:37:46.280Z,979.37
2017-08-03T02:38:56.553Z,979.35
2017-08-03T02:40:06.821Z,979.38
2017-08-03T02:41:17.111Z,979.4
2017-08-03T02:42:27.384Z,979.42
2017-08-03T02:43:37.655Z,979.4
2017-08-03T02:44:47.922Z,979.39
2017-08-03T02:45:57.881Z,979.34
2017-08-03T02:47:07.831Z,979.35
2017-08-03T02:48:18.103Z,979.36
2017-08-03T02:49:28.394Z,979.34
2017-08-03T02:50:38.348Z,979.33
2017-08-03T02:51:48.366Z,979.34
2017-08-03T02:52:58.333Z,979.4
2017-08-03T02:54:08.600Z,979.39
2017-08-03T02:55:18.551Z,979.39
2017-08-03T02:56:28.508Z,979.35
2017-08-03T02:57:38.775Z,979.36
2017-08-03T02:58:49.045Z,979.38
2017-08-03T02:59:58.997Z,979.37
2017-08-03T03:01:09.268Z,979.35
2017-08-03T03:02:19.535Z,979.34
2017-08-03T03:03:29.818Z,979.35
2017-08-03T03:04:40.077Z,979.43
2017-08-03T03:05:50.343Z,979.4
2017-08-03T03:08:14.354Z,979.37
2017-08-03T03:09:24.307Z,979.36
2017-08-03T03:10:34.576Z,979.37
2017-08-03T03:11:44.848Z,979.37
2017-08-03T03:12:55.116Z,979.42
2017-08-03T03:14:05.380Z,979.4
2017-08-03T03:15:15.647Z,979.48
2017-08-03T03:16:25.604Z,979.5
2017-08-03T03:17:35.577Z,979.54
2017-08-03T03:18:45.841Z,979.51
2017-08-03T03:19:56.105Z,979.48
2017-08-03T03:21:06.370Z,979.48
2017-08-03T03:22:16.014Z,979.47
2017-08-03T03:23:25.965Z,979.49
2017-08-03T03:24:35.620Z,979.48
2017-08-03T03:25:45.886Z,979.49
2017-08-03T03:26:56.157Z,979.54
2017-08-03T03:28:06.428Z,979.55
2017-08-03T03:29:16.702Z,979.56
2017-08-03T03:30:26.657Z,979.5
2017-08-03T03:31:36.931Z,979.52
2017-08-03T03:32:47.193Z,979.57
2017-08-03T03:33:57.147Z,979.56
2017-08-03T03:35:06.783Z,979.59
2017-08-03T03:36:17.048Z,979.6
2017-08-03T03:37:27.314Z,979.62
2017-08-03T03:38:37.267Z,979.65
2017-08-03T03:39:47.535Z,979.58
2017-08-03T03:40:57.803Z,979.62
2017-08-03T03:42:08.069Z,979.65
2017-08-03T03:43:18.346Z,979.62
2017-08-03T03:44:28.300Z,979.63
2017-08-03T03:45:37.941Z,979.62
2017-08-03T03:46:47.890Z,979.64
2017-08-03T03:47:58.156Z,979.66
2017-08-03T03:49:08.424Z,979.64
2017-08-03T03:50:18.690Z,979.6
2017-08-03T03:51:28.644Z,979.62
2017-08-03T03:52:38.908Z,979.65
2017-08-03T03:53:48.860Z,979.65
2017-08-03T03:54:59.127Z,979.7
2017-08-03T03:56:09.391Z,979.69
2017-08-03T03:57:19.659Z,979.71
2017-08-03T03:58:29.926Z,979.74
2017-08-03T03:59:40.194Z,979.73
2017-08-03T04:00:49.844Z,979.71
2017-08-03T04:01:59.794Z,979.75
2017-08-03T04:03:10.058Z,979.74
2017-08-03T04:04:20.328Z,979.74
2017-08-03T04:05:30.595Z,979.76
2017-08-03T04:06:40.860Z,979.75
2017-08-03T04:07:51.127Z,979.74
2017-08-03T04:09:01.395Z,979.71
2017-08-03T04:10:11.658Z,979.71
2017-08-03T04:11:21.925Z,979.72
2017-08-03T04:12:32.192Z,979.72
2017-08-03T04:13:42.460Z,979.74
2017-08-03T04:14:52.729Z,979.7
2017-08-03T04:16:03.000Z,979.75
2017-08-03T04:17:13.346Z,979.75
2017-08-03T04:18:23.621Z,979.79
2017-08-03T04:19:33.256Z,979.79
2017-08-03T04:20:43.523Z,979.81
2017-08-03T04:21:53.802Z,979.8
2017-08-03T04:23:04.078Z,979.79
2017-08-03T04:24:14.352Z,979.77
2017-08-03T04:25:24.301Z,979.78
2017-08-03T04:26:34.257Z,979.82
2017-08-03T04:27:44.526Z,979.87
2017-08-03T04:28:54.477Z,979.9
2017-08-03T04:30:04.444Z,979.91
2017-08-03T04:31:14.397Z,979.92
2017-08-03T04:32:24.662Z,979.88
2017-08-03T04:33:34.929Z,979.9
2017-08-03T04:34:44.889Z,979.92
2017-08-03T04:35:54.888Z,979.86
2017-08-03T04:37:04.525Z,979.88
2017-08-03T04:38:14.793Z,979.87
2017-08-03T04:39:25.059Z,979.86
2017-08-03T04:40:35.330Z,979.86
2017-08-03T04:41:45.285Z,979.84
2017-08-03T04:42:55.233Z,979.87
2017-08-03T04:44:05.185Z,979.84
2017-08-03T04:45:15.130Z,979.79
2017-08-03T04:46:25.400Z,979.76
2017-08-03T04:47:35.663Z,979.74
2017-08-03T04:48:45.930Z,979.73
2017-08-03T04:49:56.223Z,979.73
2017-08-03T04:51:06.178Z,979.75
2017-08-03T04:52:16.449Z,979.76
2017-08-03T04:53:26.405Z,979.74
2017-08-03T04:54:36.689Z,979.75
2017-08-03T04:55:46.977Z,979.7
2017-08-03T04:56:56.927Z,979.66
2017-08-03T04:58:07.190Z,979.67
2017-08-03T04:59:17.137Z,979.72
2017-08-03T05:00:27.412Z,979.72
2017-08-03T05:01:37.365Z,979.69
2017-08-03T05:02:47.002Z,979.7
2017-08-03T05:03:56.974Z,979.7
2017-08-03T05:05:07.249Z,979.71
2017-08-03T05:06:17.516Z,979.76
2017-08-03T05:07:27.165Z,979.74
2017-08-03T05:08:37.428Z,979.72
2017-08-03T05:09:47.388Z,979.72
2017-08-03T05:10:57.658Z,979.7
2017-08-03T05:12:07.920Z,979.68
2017-08-03T05:13:17.883Z,979.65
2017-08-03T05:14:27.539Z,979.68
2017-08-03T05:15:37.806Z,979.69
2017-08-03T05:16:47.764Z,979.68
2017-08-03T05:17:57.721Z,979.66
2017-08-03T05:19:07.674Z,979.66
2017-08-03T05:20:17.943Z,979.69
2017-08-03T05:21:27.895Z,979.71
2017-08-03T05:22:38.169Z,979.71
2017-08-03T05:23:48.442Z,979.7
2017-08-03T05:24:58.095Z,979.64
2017-08-03T05:26:08.367Z,979.59
2017-08-03T05:27:18.639Z,979.58
2017-08-03T05:28:28.915Z,979.63
2017-08-03T05:29:39.187Z,979.69
2017-08-03T05:30:49.455Z,979.73
2017-08-03T05:31:59.750Z,979.71
2017-08-03T05:33:10.037Z,979.73
2017-08-03T05:34:20.309Z,979.76
2017-08-03T05:35:30.584Z,979.73
2017-08-03T05:36:40.537Z,979.73
2017-08-03T05:37:50.492Z,979.73
2017-08-03T05:39:00.764Z,979.72
2017-08-03T05:40:11.030Z,979.72
2017-08-03T05:41:21.301Z,979.73
2017-08-03T05:42:31.254Z,979.64
2017-08-03T05:43:40.904Z,979.68
2017-08-03T05:44:51.173Z,979.68
2017-08-03T05:46:00.502Z,979.7
2017-08-03T05:47:10.775Z,979.68
2017-08-03T05:48:21.045Z,979.69
2017-08-03T05:49:31.312Z,979.71
2017-08-03T05:50:40.953Z,979.68
2017-08-03T05:51:50.918Z,979.67
2017-08-03T05:53:00.871Z,979.63
2017-08-03T05:54:11.141Z,979.69
2017-08-03T05:55:21.426Z,979.66
2017-08-03T05:56:31.702Z,979.69
2017-08-03T05:57:41.654Z,979.71
2017-08-03T05:58:51.608Z,979.68
2017-08-03T06:00:01.880Z,979.69
2017-08-03T06:01:12.151Z,979.69
2017-08-03T06:02:22.416Z,979.69
2017-08-03T06:03:32.372Z,979.77
2017-08-03T06:04:42.330Z,979.79
2017-08-03T06:05:52.598Z,979.76
2017-08-03T06:07:02.869Z,979.79
2017-08-03T06:08:12.846Z,979.76
2017-08-03T06:09:22.799Z,979.74
2017-08-03T06:10:33.069Z,979.76
2017-08-03T06:11:43.338Z,979.74
2017-08-03T06:12:53.292Z,979.7
2017-08-03T06:14:03.565Z,979.71
2017-08-03T06:15:13.517Z,979.72
2017-08-03T06:16:23.787Z,979.72
2017-08-03T06:17:33.743Z,979.72
2017-08-03T06:18:43.381Z,979.76
2017-08-03T06:19:53.648Z,979.75
2017-08-03T06:21:03.601Z,979.74
2017-08-03T06:22:13.557Z,979.71
2017-08-03T06:23:23.835Z,979.75
2017-08-03T06:24:33.793Z,979.67
2017-08-03T06:25:44.061Z,979.72
2017-08-03T06:26:54.014Z,979.7
2017-08-03T06:28:03.967Z,979.69
2017-08-03T06:29:13.922Z,979.72
2017-08-03T06:30:24.197Z,979.73
2017-08-03T06:31:34.150Z,979.75
2017-08-03T06:32:44.413Z,979.72
2017-08-03T06:33:54.683Z,979.67
2017-08-03T06:35:04.958Z,979.71
2017-08-03T06:36:14.608Z,979.73
2017-08-03T06:37:24.879Z,979.74
2017-08-03T06:38:35.148Z,979.75
2017-08-03T06:39:45.116Z,979.75
2017-08-03T06:40:55.411Z,979.75
2017-08-03T06:42:05.694Z,979.77
2017-08-03T06:43:15.964Z,979.79
2017-08-03T06:44:26.230Z,979.76
2017-08-03T06:45:36.504Z,979.72
2017-08-03T06:46:46.782Z,979.68
2017-08-03T06:47:57.057Z,979.64
2017-08-03T06:49:06.698Z,979.61
2017-08-03T06:50:16.965Z,979.61
2017-08-03T06:51:26.919Z,979.56
2017-08-03T06:52:37.187Z,979.58
2017-08-03T06:53:47.150Z,979.6
2017-08-03T06:54:57.422Z,979.6
2017-08-03T06:56:07.694Z,979.57
2017-08-03T06:57:17.653Z,979.6
2017-08-03T06:58:27.926Z,979.59
2017-08-03T06:59:37.884Z,979.57
2017-08-03T07:00:47.844Z,979.6
2017-08-03T07:01:57.490Z,979.61
2017-08-03T07:03:07.768Z,979.65
2017-08-03T07:04:17.728Z,979.65
2017-08-03T07:05:28.001Z,979.65
2017-08-03T07:06:38.269Z,979.64
2017-08-03T07:07:48.542Z,979.66
2017-08-03T07:08:58.810Z,979.67
2017-08-03T07:10:08.765Z,979.72
2017-08-03T07:11:19.048Z,979.67
2017-08-03T07:12:28.688Z,979.67
2017-08-03T07:13:38.338Z,979.69
2017-08-03T07:14:48.621Z,979.63
2017-08-03T07:15:58.891Z,979.56
2017-08-03T07:17:08.848Z,979.49
2017-08-03T07:18:19.118Z,979.46
2017-08-03T07:19:29.393Z,979.43
2017-08-03T07:20:39.355Z,979.42
2017-08-03T07:21:48.695Z,979.46
2017-08-03T07:22:58.966Z,979.42
2017-08-03T07:24:09.236Z,979.45
2017-08-03T07:25:19.509Z,979.38
2017-08-03T07:26:29.778Z,979.41
2017-08-03T07:27:40.051Z,979.38
2017-08-03T07:28:50.327Z,979.45
2017-08-03T07:30:00.598Z,979.4
2017-08-03T07:31:10.556Z,979.39
2017-08-03T07:32:20.830Z,979.39
2017-08-03T07:33:30.788Z,979.45
2017-08-03T07:34:41.063Z,979.41
2017-08-03T07:35:50.703Z,979.38
2017-08-03T07:37:00.662Z,979.39
2017-08-03T07:38:10.936Z,979.37
2017-08-03T07:39:21.235Z,979.34
2017-08-03T07:40:30.883Z,979.33
2017-08-03T07:41:41.158Z,979.28
2017-08-03T07:42:51.430Z,979.27
2017-08-03T07:44:01.703Z,979.24
2017-08-03T07:45:11.979Z,979.21
2017-08-03T07:46:22.253Z,979.2
2017-08-03T07:47:32.524Z,979.15
2017-08-03T07:48:42.799Z,979.12
2017-08-03T07:49:53.071Z,979.1
2017-08-03T07:51:03.044Z,979.17
2017-08-03T07:52:13.007Z,979.22
2017-08-03T07:53:23.288Z,979.28
2017-08-03T07:54:33.560Z,979.25
2017-08-03T07:55:43.837Z,979.28
2017-08-03T07:56:54.115Z,979.27
2017-08-03T07:58:04.072Z,979.29
2017-08-03T07:59:14.344Z,979.28
2017-08-03T08:00:23.686Z,979.28
2017-08-03T08:01:33.963Z,979.33
2017-08-03T08:02:43.922Z,979.3
2017-08-03T08:03:54.195Z,979.28
2017-08-03T08:05:04.471Z,979.28
2017-08-03T08:06:14.747Z,979.26
2017-08-03T08:07:25.019Z,979.22
2017-08-03T08:08:34.976Z,979.24
2017-08-03T08:09:44.617Z,979.22
2017-08-03T08:10:54.894Z,979.25
2017-08-03T08:12:05.166Z,979.21
2017-08-03T08:13:15.131Z,979.2
2017-08-03T08:14:25.402Z,979.23
2017-08-03T08:15:35.378Z,979.26
2017-08-03T08:16:45.338Z,979.22
2017-08-03T08:17:55.296Z,979.2
2017-08-03T08:19:05.570Z,979.18
2017-08-03T08:20:15.845Z,979.17
2017-08-03T08:21:26.128Z,979.16
2017-08-03T08:22:36.086Z,979.14
2017-08-03T08:23:46.353Z,979.15
2017-08-03T08:24:55.364Z,979.12
2017-08-03T08:26:05.325Z,979.12
2017-08-03T08:27:15.282Z,979.14
2017-08-03T08:28:25.554Z,979.16
2017-08-03T08:29:35.834Z,979.18
2017-08-03T08:30:46.108Z,979.19
2017-08-03T08:31:56.069Z,979.18
2017-08-03T08:33:06.043Z,979.16
2017-08-03T08:34:16.349Z,979.14
2017-08-03T08:35:26.621Z,979.12
2017-08-03T08:36:36.893Z,979.1
2017-08-03T08:37:47.168Z,979.14
2017-08-03T08:38:57.439Z,979.1
2017-08-03T08:40:07.721Z,979.13
2017-08-03T08:41:17.680Z,979.14
2017-08-03T08:42:27.639Z,979.12
2017-08-03T08:43:37.597Z,979.05
2017-08-03T08:44:47.559Z,979.04
2017-08-03T08:45:57.838Z,979.01
2017-08-03T08:47:07.797Z,979.03
2017-08-03T08:48:18.075Z,978.97
2017-08-03T08:49:28.344Z,978.94
2017-08-03T08:50:38.307Z,978.94
2017-08-03T08:51:48.577Z,978.92
2017-08-03T08:52:57.906Z,978.9
2017-08-03T08:54:08.182Z,978.87
2017-08-03T08:55:18.456Z,978.86
2017-08-03T08:56:28.727Z,978.84
2017-08-03T08:57:38.684Z,978.79
2017-08-03T08:58:48.646Z,978.77
2017-08-03T08:59:58.602Z,978.71
2017-08-03T09:01:08.562Z,978.76
2017-08-03T09:02:18.541Z,978.78
2017-08-03T09:03:28.813Z,978.71
2017-08-03T09:04:38.769Z,978.7
2017-08-03T09:05:49.040Z,978.7
2017-08-03T09:06:59.314Z,978.65
2017-08-03T09:08:09.584Z,978.66
2017-08-03T09:09:19.542Z,978.62
2017-08-03T09:10:29.817Z,978.64
2017-08-03T09:11:40.090Z,978.63
2017-08-03T09:12:50.371Z,978.63
2017-08-03T09:14:00.644Z,978.59
2017-08-03T09:15:10.925Z,978.59
2017-08-03T09:16:21.218Z,978.58
2017-08-03T09:17:31.490Z,978.59
2017-08-03T09:18:41.764Z,978.55
2017-08-03T09:19:51.745Z,978.58
2017-08-03T09:21:01.702Z,978.52
2017-08-03T09:22:11.978Z,978.51
2017-08-03T09:23:22.271Z,978.48
2017-08-03T09:24:32.539Z,978.45
2017-08-03T09:25:42.811Z,978.4
2017-08-03T09:26:52.452Z,978.39
2017-08-03T09:28:02.725Z,978.37
2017-08-03T09:29:12.997Z,978.38
2017-08-03T09:30:22.955Z,978.34
2017-08-03T09:31:32.913Z,978.39
2017-08-03T09:32:43.186Z,978.33
2017-08-03T09:33:53.147Z,978.35
2017-08-03T09:35:03.115Z,978.32
2017-08-03T09:36:13.392Z,978.33
2017-08-03T09:37:23.353Z,978.28
2017-08-03T09:38:33.631Z,978.23
2017-08-03T09:39:43.587Z,978.2
2017-08-03T09:40:53.890Z,978.19
2017-08-03T09:42:04.161Z,978.13
2017-08-03T09:43:14.113Z,978.07
2017-08-03T09:44:24.074Z,978.03
2017-08-03T09:45:34.038Z,977.99
2017-08-03T09:46:44.000Z,977.92
2017-08-03T09:47:53.974Z,977.92
2017-08-03T09:49:04.255Z,977.93
2017-08-03T09:50:14.527Z,977.97
2017-08-03T09:51:24.516Z,977.96
2017-08-03T09:52:34.796Z,977.96
2017-08-03T09:53:45.080Z,977.99
2017-08-03T09:54:55.363Z,977.97
2017-08-03T09:56:05.638Z,977.95
2017-08-03T09:57:15.921Z,977.97
2017-08-03T09:58:26.203Z,977.94
2017-08-03T09:59:36.170Z,977.91
2017-08-03T10:00:46.436Z,977.87
2017-08-03T10:01:56.714Z,977.8
2017-08-03T10:03:06.675Z,977.82
2017-08-03T10:04:16.642Z,977.78
2017-08-03T10:05:26.599Z,977.88
2017-08-03T10:06:36.874Z,977.86
2017-08-03T10:07:47.147Z,977.89
2017-08-03T10:08:57.424Z,977.85
2017-08-03T10:10:07.393Z,977.87
2017-08-03T10:11:17.363Z,977.82
2017-08-03T10:12:27.638Z,977.82
2017-08-03T10:13:37.600Z,977.81
2017-08-03T10:14:46.936Z,977.82
2017-08-03T10:15:56.581Z,977.76
2017-08-03T10:17:06.856Z,977.73
2017-08-03T10:18:16.815Z,977.73
2017-08-03T10:19:27.106Z,977.76
2017-08-03T10:20:37.379Z,977.69
2017-08-03T10:21:47.342Z,977.65
2017-08-03T10:22:56.989Z,977.64
2017-08-03T10:24:07.266Z,977.58
2017-08-03T10:25:17.549Z,977.58
2017-08-03T10:26:27.824Z,977.58
2017-08-03T10:27:37.789Z,977.57
2017-08-03T10:28:48.065Z,977.56
2017-08-03T10:29:58.023Z,977.53
2017-08-03T10:31:08.301Z,977.52
2017-08-03T10:32:18.258Z,977.54
2017-08-03T10:33:27.920Z,977.51
2017-08-03T10:34:37.877Z,977.53
2017-08-03T10:35:48.181Z,977.54
2017-08-03T10:36:58.142Z,977.51
2017-08-03T10:38:08.423Z,977.51
2017-08-03T10:39:18.385Z,977.54
2017-08-03T10:40:28.660Z,977.49
2017-08-03T10:41:38.930Z,977.51
2017-08-03T10:42:48.891Z,977.51
2017-08-03T10:43:59.165Z,977.49
2017-08-03T10:45:09.136Z,977.44
2017-08-03T10:46:19.418Z,977.44
2017-08-03T10:47:29.693Z,977.43
2017-08-03T10:48:39.972Z,977.39
2017-08-03T10:49:49.623Z,977.42
2017-08-03T10:50:59.578Z,977.41
2017-08-03T10:52:09.532Z,977.41
2017-08-03T10:53:19.495Z,977.43
2017-08-03T10:54:29.768Z,977.36
2017-08-03T10:55:40.051Z,977.37
2017-08-03T10:56:50.328Z,977.37
2017-08-03T10:58:00.284Z,977.33
2017-08-03T10:59:10.242Z,977.36
2017-08-03T11:00:20.199Z,977.36
2017-08-03T11:01:29.531Z,977.32
2017-08-03T11:02:39.497Z,977.27
2017-08-03T11:03:49.460Z,977.3
2017-08-03T11:04:59.427Z,977.26
2017-08-03T11:06:09.076Z,977.23
2017-08-03T11:07:19.350Z,977.16
2017-08-03T11:08:29.624Z,977.11
2017-08-03T11:09:39.589Z,977.05
2017-08-03T11:10:49.549Z,977.02
2017-08-03T11:11:59.836Z,976.95
2017-08-03T11:13:09.808Z,976.89
2017-08-03T11:14:20.084Z,976.88
2017-08-03T11:15:30.362Z,976.77
2017-08-03T11:16:40.641Z,976.75
2017-08-03T11:17:50.605Z,976.71
2017-08-03T11:19:00.881Z,976.68
2017-08-03T11:20:11.152Z,976.68
2017-08-03T11:21:21.441Z,976.63
2017-08-03T11:22:31.709Z,976.56
2017-08-03T11:23:41.982Z,976.53
2017-08-03T11:24:51.627Z,976.48
2017-08-03T11:26:01.928Z,976.45
2017-08-03T11:27:12.204Z,976.43
2017-08-03T11:28:22.484Z,976.43
2017-08-03T11:29:32.130Z,976.42
2017-08-03T11:30:42.404Z,976.4
2017-08-03T11:31:52.362Z,976.38
2017-08-03T11:33:02.015Z,976.36
2017-08-03T11:34:12.302Z,976.35
2017-08-03T11:35:21.946Z,976.36
2017-08-03T11:36:31.907Z,976.36
2017-08-03T11:37:41.553Z,976.41
2017-08-03T11:38:51.838Z,976.34
2017-08-03T11:40:02.115Z,976.33
2017-08-03T11:41:12.082Z,976.38
2017-08-03T11:42:22.047Z,976.38
2017-08-03T11:43:32.331Z,976.4
2017-08-03T11:44:42.616Z,976.38
2017-08-03T11:45:52.895Z,976.1
2017-08-03T11:47:02.867Z,976.14
2017-08-03T11:48:13.153Z,976.09
2017-08-03T11:49:23.122Z,976.08
2017-08-03T11:50:33.404Z,976.12
2017-08-03T11:51:43.682Z,976.17
2017-08-03T11:52:53.964Z,976.17
2017-08-03T11:54:03.933Z,976.22
2017-08-03T11:55:14.217Z,976.2
2017-08-03T11:56:24.184Z,976.19
2017-08-03T11:57:34.461Z,976.23
2017-08-03T11:58:44.108Z,976.21
2017-08-03T11:59:54.393Z,976.23
2017-08-03T12:01:04.677Z,976.22
2017-08-03T12:02:14.648Z,976.18
2017-08-03T12:03:24.929Z,976.16
2017-08-03T12:04:34.580Z,976.18
2017-08-03T12:05:44.862Z,976.21
2017-08-03T12:06:54.842Z,976.15
2017-08-03T12:08:05.125Z,976.16
2017-08-03T12:09:15.403Z,976.1
2017-08-03T12:10:25.688Z,976.03
2017-08-03T12:11:35.988Z,976.02
2017-08-03T12:12:46.267Z,976.01
2017-08-03T12:13:56.548Z,976.02
2017-08-03T12:15:06.826Z,975.98
2017-08-03T12:16:17.111Z,975.99
2017-08-03T12:17:27.078Z,975.96
2017-08-03T12:18:37.353Z,975.99
2017-08-03T12:19:47.318Z,975.96
2017-08-03T12:20:57.287Z,975.98
2017-08-03T12:22:07.249Z,976.05
2017-08-03T12:23:16.908Z,976.18
2017-08-03T12:24:27.201Z,976.3
2017-08-03T12:25:37.172Z,976.1
2017-08-03T12:26:47.136Z,975.99
2017-08-03T12:27:57.411Z,975.86
2017-08-03T12:29:07.385Z,975.83
2017-08-03T12:30:17.673Z,975.84
2017-08-03T12:31:27.637Z,975.84
2017-08-03T12:32:37.915Z,975.84
2017-08-03T12:33:47.257Z,975.79
2017-08-03T12:34:57.232Z,975.77
2017-08-03T12:36:07.201Z,975.76
2017-08-03T12:37:16.857Z,975.71
2017-08-03T12:38:26.831Z,975.73
2017-08-03T12:39:37.109Z,975.84
2017-08-03T12:40:47.079Z,975.9
2017-08-03T12:41:56.728Z,975.87
2017-08-03T12:43:07.011Z,975.9
2017-08-03T12:44:16.982Z,975.77
2017-08-03T12:45:27.269Z,975.74
2017-08-03T12:46:37.243Z,975.73
2017-08-03T12:47:47.220Z,975.67
2017-08-03T12:48:57.186Z,975.63
2017-08-03T12:50:07.156Z,975.64
2017-08-03T12:51:17.440Z,975.65
2017-08-03T12:52:27.115Z,975.64
2017-08-03T12:53:37.398Z,975.61
2017-08-03T12:54:47.687Z,975.58
2017-08-03T12:55:57.972Z,975.55
2017-08-03T12:57:08.264Z,975.52
2017-08-03T12:58:18.537Z,975.52
2017-08-03T12:59:28.814Z,975.49
2017-08-03T13:00:38.473Z,975.44
2017-08-03T13:01:48.129Z,975.46
2017-08-03T13:02:58.411Z,975.49
2017-08-03T13:04:08.694Z,975.48
2017-08-03T13:05:18.970Z,975.51
2017-08-03T13:06:28.625Z,975.46
2017-08-03T13:07:38.902Z,975.41
2017-08-03T13:08:49.182Z,975.41
2017-08-03T13:09:59.457Z,975.39
2017-08-03T13:11:09.742Z,975.3
2017-08-03T13:12:20.036Z,975.35
2017-08-03T13:13:30.322Z,975.36
2017-08-03T13:14:39.976Z,975.32
2017-08-03T13:15:49.944Z,975.3
2017-08-03T13:16:59.597Z,975.3
2017-08-03T13:18:09.566Z,975.22
2017-08-03T13:19:19.851Z,975.16
2017-08-03T13:20:29.814Z,975.08
2017-08-03T13:21:39.788Z,975.05
2017-08-03T13:22:50.069Z,975.04
2017-08-03T13:24:00.344Z,975.02
2017-08-03T13:25:10.642Z,974.97
2017-08-03T13:26:20.926Z,974.98
2017-08-03T13:27:31.210Z,974.96
2017-08-03T13:28:41.173Z,974.89
2017-08-03T13:29:51.454Z,974.84
2017-08-03T13:31:01.419Z,974.83
2017-08-03T13:32:11.381Z,974.81
2017-08-03T13:33:21.660Z,974.77
2017-08-03T13:34:31.941Z,974.72
2017-08-03T13:35:42.220Z,974.69
2017-08-03T13:36:52.512Z,974.71
2017-08-03T13:38:02.794Z,974.7
2017-08-03T13:39:12.457Z,974.7
2017-08-03T13:40:22.734Z,974.65
2017-08-03T13:41:33.013Z,974.62
2017-08-03T13:42:43.304Z,974.57
2017-08-03T13:43:53.594Z,974.55
2017-08-03T13:45:03.986Z,974.54
2017-08-03T13:46:14.486Z,974.53
2017-08-03T13:47:24.554Z,974.46
2017-08-03T13:48:34.652Z,974.46
2017-08-03T13:49:44.832Z,974.41
2017-08-03T13:50:54.847Z,974.39
2017-08-03T13:52:05.135Z,974.36
2017-08-03T13:53:15.412Z,974.38
2017-08-03T13:54:25.708Z,974.29
2017-08-03T13:55:35.673Z,974.32
2017-08-03T13:56:45.323Z,974.3
2017-08-03T13:57:55.292Z,974.24
2017-08-03T13:59:05.572Z,974.2
2017-08-03T14:00:15.848Z,974.19
2017-08-03T14:01:25.507Z,974.2
2017-08-03T14:02:35.467Z,974.2
2017-08-03T14:03:45.430Z,974.15
2017-08-03T14:04:55.709Z,974.19
2017-08-03T14:06:05.669Z,974.16
2017-08-03T14:07:15.949Z,974.17
2017-08-03T14:08:26.230Z,974.16
2017-08-03T14:09:36.527Z,974.12
2017-08-03T14:10:46.501Z,974.14
2017-08-03T14:11:56.149Z,974.14
2017-08-03T14:13:06.115Z,974.16
2017-08-03T14:14:16.393Z,974.18
2017-08-03T14:15:26.350Z,974.12
2017-08-03T14:16:36.317Z,974.09
2017-08-03T14:17:46.614Z,974.05
2017-08-03T14:18:56.257Z,974.05
2017-08-03T14:20:06.225Z,974.05
2017-08-03T14:21:16.512Z,974.02
2017-08-03T14:22:26.789Z,974.01
2017-08-03T14:23:37.064Z,974.01
2017-08-03T14:24:47.031Z,974
2017-08-03T14:25:57.312Z,974.01
2017-08-03T14:27:07.278Z,974
2017-08-03T14:28:17.597Z,974.01
2017-08-03T14:29:27.248Z,974.01
2017-08-03T14:30:37.208Z,973.97
2017-08-03T14:31:47.489Z,973.98
2017-08-03T14:32:57.770Z,973.91
2017-08-03T14:34:08.052Z,973.91
2017-08-03T14:35:18.012Z,973.91
2017-08-03T14:36:28.296Z,973.87
2017-08-03T14:37:38.263Z,973.8
2017-08-03T14:38:48.541Z,973.83